sensor_id;sensor_type;location;lat;lon;timestamp;P1;durP1;ratioP1;P2;durP2;ratioP2
8421;SDS011;4248;48.196;10.924;2024-03-06T00:00:41;21.40;;;14.17;;
8421;SDS011;4248;48.196;10.924;2024-03-06T00:03:06;20.73;;;13.47;;
8421;SDS011;4248;48.196;10.924;2024-03-06T00:05:32;21.13;;;14.70;;
8421;SDS011;4248;48.196;10.924;2024-03-06T00:07:57;18.30;;;12.30;;
8421;SDS011;4248;48.196;10.924;2024-03-06T00:10:23;19.97;;;13.67;;
8421;SDS011;4248;48.196;10.924;2024-03-06T00:12:48;19.87;;;13.23;;
8421;SDS011;4248;48.196;10.924;2024-03-06T00:15:14;20.30;;;13.30;;
8421;SDS011;4248;48.196;10.924;2024-03-06T00:17:39;20.87;;;12.60;;
8421;SDS011;4248;48.196;10.924;2024-03-06T00:20:05;23.13;;;13.77;;
8421;SDS011;4248;48.196;10.924;2024-03-06T00:22:32;20.90;;;13.00;;
8421;SDS011;4248;48.196;10.924;2024-03-06T00:24:57;19.67;;;13.83;;
8421;SDS011;4248;48.196;10.924;2024-03-06T00:27:23;24.20;;;13.30;;
8421;SDS011;4248;48.196;10.924;2024-03-06T00:29:48;18.20;;;12.50;;
8421;SDS011;4248;48.196;10.924;2024-03-06T00:32:14;21.00;;;13.60;;
8421;SDS011;4248;48.196;10.924;2024-03-06T00:34:40;19.73;;;12.90;;
8421;SDS011;4248;48.196;10.924;2024-03-06T00:37:05;19.33;;;12.90;;
8421;SDS011;4248;48.196;10.924;2024-03-06T00:39:31;16.90;;;12.33;;
8421;SDS011;4248;48.196;10.924;2024-03-06T00:41:56;18.53;;;11.93;;
8421;SDS011;4248;48.196;10.924;2024-03-06T00:44:22;21.53;;;14.40;;
8421;SDS011;4248;48.196;10.924;2024-03-06T00:46:47;20.00;;;13.20;;
8421;SDS011;4248;48.196;10.924;2024-03-06T00:49:13;19.73;;;13.43;;
8421;SDS011;4248;48.196;10.924;2024-03-06T00:51:39;19.87;;;12.77;;
8421;SDS011;4248;48.196;10.924;2024-03-06T00:54:05;19.10;;;13.33;;
8421;SDS011;4248;48.196;10.924;2024-03-06T00:56:30;24.17;;;14.30;;
8421;SDS011;4248;48.196;10.924;2024-03-06T00:58:56;25.57;;;15.37;;
8421;SDS011;4248;48.196;10.924;2024-03-06T01:01:21;19.87;;;13.90;;
8421;SDS011;4248;48.196;10.924;2024-03-06T01:03:47;24.77;;;15.73;;
8421;SDS011;4248;48.196;10.924;2024-03-06T01:06:13;22.00;;;14.70;;
8421;SDS011;4248;48.196;10.924;2024-03-06T01:08:39;24.93;;;15.00;;
8421;SDS011;4248;48.196;10.924;2024-03-06T01:11:06;25.33;;;16.40;;
8421;SDS011;4248;48.196;10.924;2024-03-06T01:13:31;23.40;;;15.60;;
8421;SDS011;4248;48.196;10.924;2024-03-06T01:15:57;26.47;;;15.73;;
8421;SDS011;4248;48.196;10.924;2024-03-06T01:18:22;28.43;;;17.67;;
8421;SDS011;4248;48.196;10.924;2024-03-06T01:20:48;24.40;;;15.53;;
8421;SDS011;4248;48.196;10.924;2024-03-06T01:23:14;27.53;;;16.07;;
8421;SDS011;4248;48.196;10.924;2024-03-06T01:25:39;24.40;;;16.90;;
8421;SDS011;4248;48.196;10.924;2024-03-06T01:28:05;24.13;;;16.70;;
8421;SDS011;4248;48.196;10.924;2024-03-06T01:30:31;25.00;;;16.47;;
8421;SDS011;4248;48.196;10.924;2024-03-06T01:32:56;26.47;;;15.97;;
8421;SDS011;4248;48.196;10.924;2024-03-06T01:35:22;27.40;;;16.97;;
8421;SDS011;4248;48.196;10.924;2024-03-06T01:37:48;24.80;;;15.00;;
8421;SDS011;4248;48.196;10.924;2024-03-06T01:40:14;24.20;;;17.10;;
8421;SDS011;4248;48.196;10.924;2024-03-06T01:42:40;22.10;;;15.20;;
8421;SDS011;4248;48.196;10.924;2024-03-06T01:45:05;26.40;;;17.27;;
8421;SDS011;4248;48.196;10.924;2024-03-06T01:47:32;27.40;;;17.13;;
8421;SDS011;4248;48.196;10.924;2024-03-06T01:49:57;26.20;;;17.23;;
8421;SDS011;4248;48.196;10.924;2024-03-06T01:52:24;22.70;;;16.10;;
8421;SDS011;4248;48.196;10.924;2024-03-06T01:54:49;26.10;;;17.27;;
8421;SDS011;4248;48.196;10.924;2024-03-06T01:57:16;25.77;;;16.33;;
8421;SDS011;4248;48.196;10.924;2024-03-06T01:59:44;21.57;;;14.03;;
8421;SDS011;4248;48.196;10.924;2024-03-06T02:02:09;19.53;;;12.83;;
8421;SDS011;4248;48.196;10.924;2024-03-06T02:04:36;24.97;;;15.70;;
8421;SDS011;4248;48.196;10.924;2024-03-06T02:07:02;20.23;;;14.80;;
8421;SDS011;4248;48.196;10.924;2024-03-06T02:09:28;23.33;;;14.90;;
8421;SDS011;4248;48.196;10.924;2024-03-06T02:11:54;22.23;;;14.80;;
8421;SDS011;4248;48.196;10.924;2024-03-06T02:14:19;20.83;;;14.37;;
8421;SDS011;4248;48.196;10.924;2024-03-06T02:16:45;22.00;;;15.07;;
8421;SDS011;4248;48.196;10.924;2024-03-06T02:19:11;19.67;;;13.40;;
8421;SDS011;4248;48.196;10.924;2024-03-06T02:21:36;21.57;;;14.47;;
8421;SDS011;4248;48.196;10.924;2024-03-06T02:24:02;22.37;;;14.17;;
8421;SDS011;4248;48.196;10.924;2024-03-06T02:26:28;20.70;;;13.90;;
8421;SDS011;4248;48.196;10.924;2024-03-06T02:28:54;17.90;;;12.97;;
8421;SDS011;4248;48.196;10.924;2024-03-06T02:31:21;19.40;;;13.57;;
8421;SDS011;4248;48.196;10.924;2024-03-06T02:33:48;22.63;;;12.57;;
8421;SDS011;4248;48.196;10.924;2024-03-06T02:36:14;21.53;;;13.30;;
8421;SDS011;4248;48.196;10.924;2024-03-06T02:38:43;24.33;;;13.70;;
8421;SDS011;4248;48.196;10.924;2024-03-06T02:41:09;25.10;;;14.30;;
8421;SDS011;4248;48.196;10.924;2024-03-06T02:43:35;19.70;;;12.70;;
8421;SDS011;4248;48.196;10.924;2024-03-06T02:46:01;21.60;;;13.53;;
8421;SDS011;4248;48.196;10.924;2024-03-06T02:48:27;18.63;;;12.33;;
8421;SDS011;4248;48.196;10.924;2024-03-06T02:50:53;20.27;;;13.43;;
8421;SDS011;4248;48.196;10.924;2024-03-06T02:53:18;18.53;;;12.80;;
8421;SDS011;4248;48.196;10.924;2024-03-06T02:55:44;18.83;;;12.83;;
8421;SDS011;4248;48.196;10.924;2024-03-06T02:58:09;18.40;;;11.00;;
8421;SDS011;4248;48.196;10.924;2024-03-06T03:00:35;18.07;;;11.17;;
8421;SDS011;4248;48.196;10.924;2024-03-06T03:03:00;19.13;;;11.17;;
8421;SDS011;4248;48.196;10.924;2024-03-06T03:05:26;15.03;;;10.47;;
8421;SDS011;4248;48.196;10.924;2024-03-06T03:07:51;18.70;;;9.90;;
8421;SDS011;4248;48.196;10.924;2024-03-06T03:10:17;16.77;;;10.80;;
8421;SDS011;4248;48.196;10.924;2024-03-06T03:12:43;15.73;;;10.90;;
8421;SDS011;4248;48.196;10.924;2024-03-06T03:15:10;19.10;;;10.43;;
8421;SDS011;4248;48.196;10.924;2024-03-06T03:17:36;18.83;;;10.77;;
8421;SDS011;4248;48.196;10.924;2024-03-06T03:20:02;20.33;;;11.73;;
8421;SDS011;4248;48.196;10.924;2024-03-06T03:22:38;22.13;;;12.10;;
8421;SDS011;4248;48.196;10.924;2024-03-06T03:25:07;19.43;;;11.80;;
8421;SDS011;4248;48.196;10.924;2024-03-06T03:27:33;20.57;;;11.87;;
8421;SDS011;4248;48.196;10.924;2024-03-06T03:30:00;21.13;;;12.63;;
8421;SDS011;4248;48.196;10.924;2024-03-06T03:32:25;18.80;;;11.60;;
8421;SDS011;4248;48.196;10.924;2024-03-06T03:34:51;18.07;;;11.27;;
8421;SDS011;4248;48.196;10.924;2024-03-06T03:37:16;20.10;;;11.10;;
8421;SDS011;4248;48.196;10.924;2024-03-06T03:39:45;23.47;;;10.93;;
8421;SDS011;4248;48.196;10.924;2024-03-06T03:42:11;17.47;;;10.60;;
8421;SDS011;4248;48.196;10.924;2024-03-06T03:44:36;17.30;;;10.93;;
8421;SDS011;4248;48.196;10.924;2024-03-06T03:47:02;17.63;;;11.83;;
8421;SDS011;4248;48.196;10.924;2024-03-06T03:49:27;16.87;;;11.37;;
8421;SDS011;4248;48.196;10.924;2024-03-06T03:51:53;17.30;;;10.80;;
8421;SDS011;4248;48.196;10.924;2024-03-06T03:54:18;17.67;;;11.23;;
8421;SDS011;4248;48.196;10.924;2024-03-06T03:56:44;17.77;;;10.97;;
8421;SDS011;4248;48.196;10.924;2024-03-06T03:59:09;18.03;;;11.33;;
8421;SDS011;4248;48.196;10.924;2024-03-06T04:01:35;16.77;;;10.50;;
8421;SDS011;4248;48.196;10.924;2024-03-06T04:04:00;17.73;;;11.20;;
8421;SDS011;4248;48.196;10.924;2024-03-06T04:06:26;18.23;;;11.03;;
8421;SDS011;4248;48.196;10.924;2024-03-06T04:08:51;18.93;;;11.33;;
8421;SDS011;4248;48.196;10.924;2024-03-06T04:11:17;17.90;;;10.87;;
8421;SDS011;4248;48.196;10.924;2024-03-06T04:13:43;20.03;;;11.43;;
8421;SDS011;4248;48.196;10.924;2024-03-06T04:16:08;18.97;;;12.20;;
8421;SDS011;4248;48.196;10.924;2024-03-06T04:18:34;16.50;;;11.00;;
8421;SDS011;4248;48.196;10.924;2024-03-06T04:21:06;19.10;;;11.60;;
8421;SDS011;4248;48.196;10.924;2024-03-06T04:23:34;15.13;;;9.93;;
8421;SDS011;4248;48.196;10.924;2024-03-06T04:26:00;18.57;;;10.93;;
8421;SDS011;4248;48.196;10.924;2024-03-06T04:28:26;17.97;;;11.87;;
8421;SDS011;4248;48.196;10.924;2024-03-06T04:30:52;17.17;;;10.93;;
8421;SDS011;4248;48.196;10.924;2024-03-06T04:33:17;18.60;;;11.30;;
8421;SDS011;4248;48.196;10.924;2024-03-06T04:35:43;21.13;;;11.70;;
8421;SDS011;4248;48.196;10.924;2024-03-06T04:38:08;19.00;;;12.10;;
8421;SDS011;4248;48.196;10.924;2024-03-06T04:40:34;21.10;;;12.40;;
8421;SDS011;4248;48.196;10.924;2024-03-06T04:43:02;19.23;;;12.13;;
8421;SDS011;4248;48.196;10.924;2024-03-06T04:45:28;18.60;;;12.03;;
8421;SDS011;4248;48.196;10.924;2024-03-06T04:47:54;21.53;;;13.20;;
8421;SDS011;4248;48.196;10.924;2024-03-06T04:50:20;20.20;;;11.90;;
8421;SDS011;4248;48.196;10.924;2024-03-06T04:52:46;21.73;;;13.00;;
8421;SDS011;4248;48.196;10.924;2024-03-06T04:55:11;22.13;;;13.07;;
8421;SDS011;4248;48.196;10.924;2024-03-06T04:57:39;20.37;;;13.13;;
8421;SDS011;4248;48.196;10.924;2024-03-06T05:00:08;21.27;;;12.77;;
8421;SDS011;4248;48.196;10.924;2024-03-06T05:02:34;22.03;;;13.17;;
8421;SDS011;4248;48.196;10.924;2024-03-06T05:05:01;18.70;;;11.77;;
8421;SDS011;4248;48.196;10.924;2024-03-06T05:07:28;22.23;;;12.80;;
8421;SDS011;4248;48.196;10.924;2024-03-06T05:09:54;19.43;;;11.83;;
8421;SDS011;4248;48.196;10.924;2024-03-06T05:12:20;17.93;;;11.53;;
8421;SDS011;4248;48.196;10.924;2024-03-06T05:14:45;20.60;;;12.57;;
8421;SDS011;4248;48.196;10.924;2024-03-06T05:17:11;17.53;;;11.97;;
8421;SDS011;4248;48.196;10.924;2024-03-06T05:19:36;20.20;;;12.70;;
8421;SDS011;4248;48.196;10.924;2024-03-06T05:22:02;19.17;;;12.57;;
8421;SDS011;4248;48.196;10.924;2024-03-06T05:24:28;20.80;;;12.27;;
8421;SDS011;4248;48.196;10.924;2024-03-06T05:26:54;23.47;;;13.80;;
8421;SDS011;4248;48.196;10.924;2024-03-06T05:29:20;23.03;;;14.67;;
8421;SDS011;4248;48.196;10.924;2024-03-06T05:31:45;22.70;;;14.00;;
8421;SDS011;4248;48.196;10.924;2024-03-06T05:34:11;20.93;;;13.27;;
8421;SDS011;4248;48.196;10.924;2024-03-06T05:36:36;23.43;;;13.67;;
8421;SDS011;4248;48.196;10.924;2024-03-06T05:39:02;20.97;;;14.20;;
8421;SDS011;4248;48.196;10.924;2024-03-06T05:41:32;26.90;;;14.30;;
8421;SDS011;4248;48.196;10.924;2024-03-06T05:43:58;23.37;;;14.33;;
8421;SDS011;4248;48.196;10.924;2024-03-06T05:46:23;26.23;;;15.17;;
8421;SDS011;4248;48.196;10.924;2024-03-06T05:48:49;25.90;;;15.33;;
8421;SDS011;4248;48.196;10.924;2024-03-06T05:51:16;29.27;;;16.10;;
8421;SDS011;4248;48.196;10.924;2024-03-06T05:53:41;23.17;;;15.60;;
8421;SDS011;4248;48.196;10.924;2024-03-06T05:56:08;24.63;;;14.93;;
8421;SDS011;4248;48.196;10.924;2024-03-06T05:58:34;23.00;;;14.57;;
8421;SDS011;4248;48.196;10.924;2024-03-06T06:01:00;23.80;;;15.40;;
8421;SDS011;4248;48.196;10.924;2024-03-06T06:03:29;25.83;;;15.00;;
8421;SDS011;4248;48.196;10.924;2024-03-06T06:05:55;25.90;;;15.83;;
8421;SDS011;4248;48.196;10.924;2024-03-06T06:08:21;25.83;;;15.70;;
8421;SDS011;4248;48.196;10.924;2024-03-06T06:10:47;24.17;;;15.30;;
8421;SDS011;4248;48.196;10.924;2024-03-06T06:13:13;30.10;;;17.23;;
8421;SDS011;4248;48.196;10.924;2024-03-06T06:15:39;28.17;;;18.37;;
8421;SDS011;4248;48.196;10.924;2024-03-06T06:18:05;35.00;;;18.33;;
8421;SDS011;4248;48.196;10.924;2024-03-06T06:20:30;25.70;;;16.00;;
8421;SDS011;4248;48.196;10.924;2024-03-06T06:22:56;29.30;;;18.23;;
8421;SDS011;4248;48.196;10.924;2024-03-06T06:25:22;37.53;;;19.33;;
8421;SDS011;4248;48.196;10.924;2024-03-06T06:27:48;28.83;;;16.80;;
8421;SDS011;4248;48.196;10.924;2024-03-06T06:30:14;30.97;;;18.10;;
8421;SDS011;4248;48.196;10.924;2024-03-06T06:32:41;33.87;;;18.93;;
8421;SDS011;4248;48.196;10.924;2024-03-06T06:35:07;72.23;;;33.17;;
8421;SDS011;4248;48.196;10.924;2024-03-06T06:37:34;43.10;;;22.30;;
8421;SDS011;4248;48.196;10.924;2024-03-06T06:40:00;45.53;;;23.90;;
8421;SDS011;4248;48.196;10.924;2024-03-06T06:42:30;44.33;;;23.00;;
8421;SDS011;4248;48.196;10.924;2024-03-06T06:44:55;38.30;;;22.53;;
8421;SDS011;4248;48.196;10.924;2024-03-06T06:47:21;35.90;;;20.67;;
8421;SDS011;4248;48.196;10.924;2024-03-06T06:49:46;39.43;;;23.00;;
8421;SDS011;4248;48.196;10.924;2024-03-06T06:52:12;45.80;;;24.70;;
8421;SDS011;4248;48.196;10.924;2024-03-06T06:54:37;42.63;;;21.70;;
8421;SDS011;4248;48.196;10.924;2024-03-06T06:57:03;43.03;;;22.43;;
8421;SDS011;4248;48.196;10.924;2024-03-06T06:59:29;33.70;;;18.77;;
8421;SDS011;4248;48.196;10.924;2024-03-06T07:01:55;34.73;;;19.03;;
8421;SDS011;4248;48.196;10.924;2024-03-06T07:04:20;32.97;;;17.83;;
8421;SDS011;4248;48.196;10.924;2024-03-06T07:06:47;32.97;;;19.20;;
8421;SDS011;4248;48.196;10.924;2024-03-06T07:09:12;38.73;;;18.73;;
8421;SDS011;4248;48.196;10.924;2024-03-06T07:11:40;34.73;;;19.13;;
8421;SDS011;4248;48.196;10.924;2024-03-06T07:14:07;32.40;;;17.67;;
8421;SDS011;4248;48.196;10.924;2024-03-06T07:16:33;37.43;;;19.07;;
8421;SDS011;4248;48.196;10.924;2024-03-06T07:18:58;41.20;;;23.60;;
8421;SDS011;4248;48.196;10.924;2024-03-06T07:21:24;47.80;;;24.10;;
8421;SDS011;4248;48.196;10.924;2024-03-06T07:23:50;45.67;;;24.13;;
8421;SDS011;4248;48.196;10.924;2024-03-06T07:26:16;34.23;;;18.70;;
8421;SDS011;4248;48.196;10.924;2024-03-06T07:28:41;31.13;;;18.07;;
8421;SDS011;4248;48.196;10.924;2024-03-06T07:31:07;38.10;;;17.70;;
8421;SDS011;4248;48.196;10.924;2024-03-06T07:33:32;32.50;;;18.63;;
8421;SDS011;4248;48.196;10.924;2024-03-06T07:35:59;43.73;;;23.87;;
8421;SDS011;4248;48.196;10.924;2024-03-06T07:38:25;42.23;;;23.03;;
8421;SDS011;4248;48.196;10.924;2024-03-06T07:40:50;38.10;;;20.40;;
8421;SDS011;4248;48.196;10.924;2024-03-06T07:43:16;45.97;;;24.37;;
8421;SDS011;4248;48.196;10.924;2024-03-06T07:45:41;68.50;;;36.60;;
8421;SDS011;4248;48.196;10.924;2024-03-06T07:48:07;51.00;;;26.80;;
8421;SDS011;4248;48.196;10.924;2024-03-06T07:50:34;33.33;;;19.23;;
8421;SDS011;4248;48.196;10.924;2024-03-06T07:53:00;52.27;;;27.50;;
8421;SDS011;4248;48.196;10.924;2024-03-06T07:55:27;66.33;;;30.73;;
8421;SDS011;4248;48.196;10.924;2024-03-06T07:57:53;55.53;;;24.40;;
8421;SDS011;4248;48.196;10.924;2024-03-06T08:00:18;34.90;;;18.30;;
8421;SDS011;4248;48.196;10.924;2024-03-06T08:02:45;40.00;;;20.20;;
8421;SDS011;4248;48.196;10.924;2024-03-06T08:05:15;38.40;;;19.77;;
8421;SDS011;4248;48.196;10.924;2024-03-06T08:07:41;36.93;;;20.27;;
8421;SDS011;4248;48.196;10.924;2024-03-06T08:10:10;36.00;;;18.93;;
8421;SDS011;4248;48.196;10.924;2024-03-06T08:12:41;38.10;;;18.80;;
8421;SDS011;4248;48.196;10.924;2024-03-06T08:15:07;35.20;;;17.20;;
8421;SDS011;4248;48.196;10.924;2024-03-06T08:17:41;36.60;;;18.80;;
8421;SDS011;4248;48.196;10.924;2024-03-06T08:20:08;43.20;;;20.60;;
8421;SDS011;4248;48.196;10.924;2024-03-06T08:22:36;33.73;;;17.40;;
8421;SDS011;4248;48.196;10.924;2024-03-06T08:25:06;38.73;;;18.20;;
8421;SDS011;4248;48.196;10.924;2024-03-06T08:27:33;30.50;;;17.27;;
8421;SDS011;4248;48.196;10.924;2024-03-06T08:30:00;40.60;;;18.17;;
8421;SDS011;4248;48.196;10.924;2024-03-06T08:32:25;36.13;;;16.53;;
8421;SDS011;4248;48.196;10.924;2024-03-06T08:34:52;31.83;;;16.43;;
8421;SDS011;4248;48.196;10.924;2024-03-06T08:37:18;35.83;;;17.50;;
8421;SDS011;4248;48.196;10.924;2024-03-06T08:39:44;32.93;;;17.10;;
8421;SDS011;4248;48.196;10.924;2024-03-06T08:42:10;34.20;;;17.57;;
8421;SDS011;4248;48.196;10.924;2024-03-06T08:44:37;38.27;;;17.93;;
8421;SDS011;4248;48.196;10.924;2024-03-06T08:47:02;29.77;;;15.90;;
8421;SDS011;4248;48.196;10.924;2024-03-06T08:49:28;31.83;;;15.80;;
8421;SDS011;4248;48.196;10.924;2024-03-06T08:51:54;30.60;;;15.10;;
8421;SDS011;4248;48.196;10.924;2024-03-06T08:54:19;25.00;;;14.17;;
8421;SDS011;4248;48.196;10.924;2024-03-06T08:56:45;24.80;;;14.07;;
8421;SDS011;4248;48.196;10.924;2024-03-06T08:59:11;30.20;;;15.57;;
8421;SDS011;4248;48.196;10.924;2024-03-06T09:01:36;25.43;;;14.50;;
8421;SDS011;4248;48.196;10.924;2024-03-06T09:04:02;29.63;;;14.47;;
8421;SDS011;4248;48.196;10.924;2024-03-06T09:06:28;25.87;;;14.20;;
8421;SDS011;4248;48.196;10.924;2024-03-06T09:08:53;24.47;;;13.73;;
8421;SDS011;4248;48.196;10.924;2024-03-06T09:11:19;30.93;;;15.77;;
8421;SDS011;4248;48.196;10.924;2024-03-06T09:13:44;28.37;;;13.93;;
8421;SDS011;4248;48.196;10.924;2024-03-06T09:16:10;27.60;;;14.00;;
8421;SDS011;4248;48.196;10.924;2024-03-06T09:18:35;27.10;;;15.50;;
8421;SDS011;4248;48.196;10.924;2024-03-06T09:21:01;26.83;;;15.17;;
8421;SDS011;4248;48.196;10.924;2024-03-06T09:23:27;30.83;;;15.10;;
8421;SDS011;4248;48.196;10.924;2024-03-06T09:25:55;28.40;;;14.83;;
8421;SDS011;4248;48.196;10.924;2024-03-06T09:28:20;29.80;;;14.80;;
8421;SDS011;4248;48.196;10.924;2024-03-06T09:30:46;29.17;;;15.07;;
8421;SDS011;4248;48.196;10.924;2024-03-06T09:33:12;31.73;;;14.33;;
8421;SDS011;4248;48.196;10.924;2024-03-06T09:35:37;25.90;;;13.67;;
8421;SDS011;4248;48.196;10.924;2024-03-06T09:38:03;26.00;;;13.83;;
8421;SDS011;4248;48.196;10.924;2024-03-06T09:40:29;28.00;;;15.37;;
8421;SDS011;4248;48.196;10.924;2024-03-06T09:42:56;24.13;;;13.37;;
8421;SDS011;4248;48.196;10.924;2024-03-06T09:45:23;24.33;;;13.03;;
8421;SDS011;4248;48.196;10.924;2024-03-06T09:47:49;28.70;;;12.37;;
8421;SDS011;4248;48.196;10.924;2024-03-06T09:50:16;21.07;;;12.27;;
8421;SDS011;4248;48.196;10.924;2024-03-06T09:52:47;23.43;;;12.37;;
8421;SDS011;4248;48.196;10.924;2024-03-06T09:55:15;19.33;;;11.50;;
8421;SDS011;4248;48.196;10.924;2024-03-06T09:57:42;17.93;;;11.60;;
8421;SDS011;4248;48.196;10.924;2024-03-06T10:00:08;22.10;;;13.60;;
8421;SDS011;4248;48.196;10.924;2024-03-06T10:05:03;28.13;;;13.90;;
8421;SDS011;4248;48.196;10.924;2024-03-06T10:07:30;18.90;;;11.37;;
8421;SDS011;4248;48.196;10.924;2024-03-06T10:09:56;17.70;;;10.60;;
8421;SDS011;4248;48.196;10.924;2024-03-06T10:12:22;21.73;;;13.23;;
8421;SDS011;4248;48.196;10.924;2024-03-06T10:14:51;22.00;;;12.93;;
8421;SDS011;4248;48.196;10.924;2024-03-06T10:17:20;22.97;;;13.23;;
8421;SDS011;4248;48.196;10.924;2024-03-06T10:19:51;20.10;;;12.63;;
8421;SDS011;4248;48.196;10.924;2024-03-06T10:22:20;19.03;;;11.70;;
8421;SDS011;4248;48.196;10.924;2024-03-06T10:24:49;22.47;;;13.10;;
8421;SDS011;4248;48.196;10.924;2024-03-06T10:27:15;24.50;;;14.40;;
8421;SDS011;4248;48.196;10.924;2024-03-06T10:29:43;23.20;;;13.53;;
8421;SDS011;4248;48.196;10.924;2024-03-06T10:32:10;25.70;;;15.20;;
8421;SDS011;4248;48.196;10.924;2024-03-06T10:34:36;27.20;;;15.00;;
8421;SDS011;4248;48.196;10.924;2024-03-06T10:37:03;22.30;;;13.03;;
8421;SDS011;4248;48.196;10.924;2024-03-06T10:39:29;29.07;;;14.90;;
8421;SDS011;4248;48.196;10.924;2024-03-06T10:41:58;28.43;;;13.70;;
8421;SDS011;4248;48.196;10.924;2024-03-06T10:44:26;24.70;;;13.97;;
8421;SDS011;4248;48.196;10.924;2024-03-06T10:49:28;32.13;;;14.00;;
8421;SDS011;4248;48.196;10.924;2024-03-06T10:51:58;24.87;;;14.63;;
8421;SDS011;4248;48.196;10.924;2024-03-06T10:54:28;25.27;;;14.30;;
8421;SDS011;4248;48.196;10.924;2024-03-06T10:56:55;25.43;;;13.70;;
8421;SDS011;4248;48.196;10.924;2024-03-06T10:59:23;26.97;;;14.70;;
8421;SDS011;4248;48.196;10.924;2024-03-06T11:01:54;28.00;;;16.30;;
8421;SDS011;4248;48.196;10.924;2024-03-06T11:04:21;29.87;;;15.83;;
8421;SDS011;4248;48.196;10.924;2024-03-06T11:06:59;27.40;;;14.67;;
8421;SDS011;4248;48.196;10.924;2024-03-06T11:09:33;29.33;;;18.30;;
8421;SDS011;4248;48.196;10.924;2024-03-06T11:12:03;30.93;;;16.33;;
8421;SDS011;4248;48.196;10.924;2024-03-06T11:14:31;31.10;;;16.50;;
8421;SDS011;4248;48.196;10.924;2024-03-06T11:16:59;31.67;;;16.40;;
8421;SDS011;4248;48.196;10.924;2024-03-06T11:19:30;31.87;;;16.37;;
8421;SDS011;4248;48.196;10.924;2024-03-06T11:21:56;29.23;;;16.30;;
8421;SDS011;4248;48.196;10.924;2024-03-06T11:24:22;31.93;;;17.40;;
8421;SDS011;4248;48.196;10.924;2024-03-06T11:27:01;32.73;;;17.17;;
8421;SDS011;4248;48.196;10.924;2024-03-06T11:30:02;27.60;;;15.80;;
8421;SDS011;4248;48.196;10.924;2024-03-06T11:32:57;26.83;;;15.60;;
8421;SDS011;4248;48.196;10.924;2024-03-06T11:35:29;33.77;;;16.23;;
8421;SDS011;4248;48.196;10.924;2024-03-06T11:37:55;29.27;;;17.27;;
8421;SDS011;4248;48.196;10.924;2024-03-06T11:40:22;28.87;;;15.17;;
8421;SDS011;4248;48.196;10.924;2024-03-06T11:42:51;29.70;;;15.67;;
8421;SDS011;4248;48.196;10.924;2024-03-06T11:45:17;29.23;;;15.70;;
8421;SDS011;4248;48.196;10.924;2024-03-06T11:48:23;28.70;;;15.40;;
8421;SDS011;4248;48.196;10.924;2024-03-06T11:50:42;13.73;;;8.40;;
8421;SDS011;4248;48.196;10.924;2024-03-06T11:53:08;9.33;;;5.90;;
8421;SDS011;4248;48.196;10.924;2024-03-06T11:55:33;11.33;;;7.47;;
8421;SDS011;4248;48.196;10.924;2024-03-06T11:57:59;11.13;;;6.60;;
8421;SDS011;4248;48.196;10.924;2024-03-06T12:00:25;11.67;;;7.90;;
8421;SDS011;4248;48.196;10.924;2024-03-06T12:02:50;8.33;;;5.60;;
8421;SDS011;4248;48.196;10.924;2024-03-06T12:05:17;12.63;;;6.93;;
8421;SDS011;4248;48.196;10.924;2024-03-06T12:07:46;11.20;;;6.17;;
8421;SDS011;4248;48.196;10.924;2024-03-06T12:10:12;8.53;;;4.77;;
8421;SDS011;4248;48.196;10.924;2024-03-06T12:12:37;6.93;;;4.40;;
8421;SDS011;4248;48.196;10.924;2024-03-06T12:15:06;10.73;;;5.60;;
8421;SDS011;4248;48.196;10.924;2024-03-06T12:17:41;8.83;;;5.33;;
8421;SDS011;4248;48.196;10.924;2024-03-06T12:20:11;10.40;;;7.07;;
8421;SDS011;4248;48.196;10.924;2024-03-06T12:22:53;9.53;;;5.23;;
8421;SDS011;4248;48.196;10.924;2024-03-06T12:25:21;7.47;;;4.50;;
8421;SDS011;4248;48.196;10.924;2024-03-06T12:27:48;7.90;;;4.70;;
8421;SDS011;4248;48.196;10.924;2024-03-06T12:30:18;8.37;;;5.37;;
8421;SDS011;4248;48.196;10.924;2024-03-06T12:32:55;7.90;;;4.83;;
8421;SDS011;4248;48.196;10.924;2024-03-06T12:35:25;8.83;;;5.60;;
8421;SDS011;4248;48.196;10.924;2024-03-06T12:37:51;10.80;;;5.50;;
8421;SDS011;4248;48.196;10.924;2024-03-06T12:40:18;9.17;;;5.70;;
8421;SDS011;4248;48.196;10.924;2024-03-06T12:42:44;9.50;;;5.83;;
8421;SDS011;4248;48.196;10.924;2024-03-06T12:45:11;12.80;;;7.80;;
8421;SDS011;4248;48.196;10.924;2024-03-06T12:47:40;11.47;;;7.10;;
8421;SDS011;4248;48.196;10.924;2024-03-06T12:50:10;11.60;;;7.47;;
8421;SDS011;4248;48.196;10.924;2024-03-06T12:52:39;10.70;;;6.77;;
8421;SDS011;4248;48.196;10.924;2024-03-06T12:55:06;9.00;;;6.73;;
8421;SDS011;4248;48.196;10.924;2024-03-06T12:57:32;17.43;;;9.73;;
8421;SDS011;4248;48.196;10.924;2024-03-06T12:59:58;19.40;;;10.70;;
8421;SDS011;4248;48.196;10.924;2024-03-06T13:02:24;14.90;;;8.13;;
8421;SDS011;4248;48.196;10.924;2024-03-06T13:04:50;8.57;;;5.70;;
8421;SDS011;4248;48.196;10.924;2024-03-06T13:07:15;9.17;;;5.73;;
8421;SDS011;4248;48.196;10.924;2024-03-06T13:09:41;10.50;;;5.77;;
8421;SDS011;4248;48.196;10.924;2024-03-06T13:12:07;9.13;;;5.90;;
8421;SDS011;4248;48.196;10.924;2024-03-06T13:14:32;8.57;;;5.47;;
8421;SDS011;4248;48.196;10.924;2024-03-06T13:16:59;9.10;;;5.40;;
8421;SDS011;4248;48.196;10.924;2024-03-06T13:19:25;9.00;;;5.80;;
8421;SDS011;4248;48.196;10.924;2024-03-06T13:21:50;9.63;;;6.50;;
8421;SDS011;4248;48.196;10.924;2024-03-06T13:24:17;9.23;;;6.50;;
8421;SDS011;4248;48.196;10.924;2024-03-06T13:26:47;24.23;;;15.83;;
8421;SDS011;4248;48.196;10.924;2024-03-06T13:29:13;9.87;;;6.30;;
8421;SDS011;4248;48.196;10.924;2024-03-06T13:31:39;12.13;;;8.63;;
8421;SDS011;4248;48.196;10.924;2024-03-06T13:34:04;10.10;;;5.70;;
8421;SDS011;4248;48.196;10.924;2024-03-06T13:36:30;10.33;;;7.00;;
8421;SDS011;4248;48.196;10.924;2024-03-06T13:38:56;7.63;;;4.93;;
8421;SDS011;4248;48.196;10.924;2024-03-06T13:41:22;6.10;;;4.53;;
8421;SDS011;4248;48.196;10.924;2024-03-06T13:43:48;7.43;;;5.00;;
8421;SDS011;4248;48.196;10.924;2024-03-06T13:46:14;7.30;;;4.90;;
8421;SDS011;4248;48.196;10.924;2024-03-06T13:48:39;6.27;;;4.30;;
8421;SDS011;4248;48.196;10.924;2024-03-06T13:51:05;7.60;;;4.87;;
8421;SDS011;4248;48.196;10.924;2024-03-06T13:53:31;7.23;;;4.17;;
8421;SDS011;4248;48.196;10.924;2024-03-06T13:55:57;6.73;;;4.20;;
8421;SDS011;4248;48.196;10.924;2024-03-06T13:58:22;12.43;;;6.80;;
8421;SDS011;4248;48.196;10.924;2024-03-06T14:00:48;16.80;;;8.90;;
8421;SDS011;4248;48.196;10.924;2024-03-06T14:03:14;13.23;;;7.77;;
8421;SDS011;4248;48.196;10.924;2024-03-06T14:05:39;7.70;;;5.47;;
8421;SDS011;4248;48.196;10.924;2024-03-06T14:08:05;13.47;;;6.40;;
8421;SDS011;4248;48.196;10.924;2024-03-06T14:10:31;15.77;;;7.73;;
8421;SDS011;4248;48.196;10.924;2024-03-06T14:13:00;10.47;;;5.80;;
8421;SDS011;4248;48.196;10.924;2024-03-06T14:15:26;7.30;;;4.77;;
8421;SDS011;4248;48.196;10.924;2024-03-06T14:17:52;5.00;;;3.30;;
8421;SDS011;4248;48.196;10.924;2024-03-06T14:20:21;6.63;;;3.77;;
8421;SDS011;4248;48.196;10.924;2024-03-06T14:22:48;5.00;;;3.50;;
8421;SDS011;4248;48.196;10.924;2024-03-06T14:25:14;6.03;;;3.47;;
8421;SDS011;4248;48.196;10.924;2024-03-06T14:27:40;6.27;;;3.53;;
8421;SDS011;4248;48.196;10.924;2024-03-06T14:30:05;5.37;;;3.23;;
8421;SDS011;4248;48.196;10.924;2024-03-06T14:32:39;4.90;;;3.20;;
8421;SDS011;4248;48.196;10.924;2024-03-06T14:35:05;5.40;;;3.10;;
8421;SDS011;4248;48.196;10.924;2024-03-06T14:37:31;5.93;;;3.30;;
8421;SDS011;4248;48.196;10.924;2024-03-06T14:39:56;6.03;;;3.97;;